Onatchiway, Canada
Current Conditions -  °F | °C
As of 12:00 AM on Thursday 23 Oct 2014 (Local Time) from CYBG Reporting Station
Few Clouds Few Clouds  
Wind Chill: 32°   Ceiling: Unl
Heat Index: 36°   Visibility: 25mi
Dew Point: 28°   Wind: 5mph
Humidity: 75%   Direction: 50°NE
Pressure: 30.37"   Gusts: NA
Location:  48.88°N, 71.02°W
Report Text: CYBG 230400Z 05004KT 25SM FEW240 02/M02 A3037 RMK CI1 SLP293
Loading
Personal Weather Stations






























Interactive Weather Map
Tropical Storm Tracking
New forecast layout! Learn more

10-Day Weather Forecast

Advertisements
Track Severe Weather on mobile